createdAt,value
2022-12-18T00:02:02.942Z,100.00
2022-12-18T00:05:05.240Z,100.00
2022-12-18T00:08:09.392Z,100.00
2022-12-18T00:11:17.292Z,100.00
2022-12-18T00:14:19.377Z,100.00
2022-12-18T00:17:21.155Z,100.00
2022-12-18T00:20:26.682Z,100.00
2022-12-18T00:23:29.216Z,100.00
2022-12-18T00:26:33.867Z,100.00
2022-12-18T00:29:37.388Z,100.00
2022-12-18T00:32:39.326Z,100.00
2022-12-18T00:35:41.263Z,100.00
2022-12-18T00:38:43.463Z,100.00
2022-12-18T00:42:04.162Z,100.00
2022-12-18T00:45:12.306Z,100.00
2022-12-18T00:48:14.997Z,100.00
2022-12-18T00:51:16.780Z,100.00
2022-12-18T00:54:18.921Z,100.00
2022-12-18T00:57:20.764Z,100.00
2022-12-18T01:00:23.319Z,100.00
2022-12-18T01:03:25.228Z,100.00
2022-12-18T01:06:27.165Z,100.00
2022-12-18T01:09:29.177Z,100.00
2022-12-18T01:12:31.016Z,100.00
2022-12-18T01:15:32.866Z,100.00
2022-12-18T01:18:34.758Z,100.00
2022-12-18T01:21:36.630Z,100.00
2022-12-18T01:24:39.478Z,100.00
2022-12-18T01:27:41.446Z,100.00
2022-12-18T01:30:43.292Z,100.00
2022-12-18T01:33:45.689Z,100.00
2022-12-18T01:36:47.584Z,100.00
2022-12-18T01:39:51.001Z,100.00
2022-12-18T01:42:53.933Z,100.00
2022-12-18T01:45:55.692Z,100.00
2022-12-18T01:49:02.438Z,100.00
2022-12-18T01:52:04.274Z,100.00
2022-12-18T01:55:08.271Z,100.00
2022-12-18T01:58:10.297Z,100.00
2022-12-18T02:01:12.708Z,100.00
2022-12-18T02:04:25.452Z,100.00
2022-12-18T02:07:59.392Z,100.00
2022-12-18T02:11:16.613Z,100.00
2022-12-18T02:14:27.241Z,100.00
2022-12-18T02:17:40.806Z,100.00
2022-12-18T02:20:50.178Z,100.00
2022-12-18T02:24:05.557Z,100.00
2022-12-18T02:27:10.546Z,100.00
2022-12-18T02:30:14.523Z,100.00
2022-12-18T02:33:16.911Z,100.00
2022-12-18T02:36:21.725Z,100.00
2022-12-18T02:39:28.008Z,100.00
2022-12-18T02:42:37.609Z,100.00
2022-12-18T02:45:58.596Z,100.00
2022-12-18T02:49:20.692Z,100.00
2022-12-18T02:52:29.917Z,100.00
2022-12-18T02:56:12.654Z,100.00
2022-12-18T02:59:25.024Z,100.00
2022-12-18T03:02:38.573Z,100.00
2022-12-18T03:05:43.145Z,100.00
2022-12-18T03:08:50.968Z,100.00
2022-12-18T03:12:21.700Z,100.00
2022-12-18T03:15:29.064Z,100.00
2022-12-18T03:19:03.793Z,100.00
2022-12-18T03:22:09.411Z,100.00
2022-12-18T03:25:22.531Z,100.00
2022-12-18T03:28:34.745Z,100.00
2022-12-18T03:31:42.895Z,100.00
2022-12-18T03:34:48.700Z,100.00
2022-12-18T03:37:53.214Z,100.00
2022-12-18T03:41:10.526Z,100.00
2022-12-18T03:44:48.677Z,100.00
2022-12-18T03:48:09.289Z,100.00
2022-12-18T03:51:32.132Z,100.00
2022-12-18T03:54:36.275Z,100.00
2022-12-18T03:57:48.249Z,100.00
2022-12-18T04:00:52.758Z,100.00
2022-12-18T04:03:57.364Z,100.00
2022-12-18T04:07:00.368Z,100.00
2022-12-18T04:10:03.960Z,100.00
2022-12-18T04:13:06.956Z,100.00
2022-12-18T04:16:10.712Z,99.93
2022-12-18T04:19:16.592Z,99.31
2022-12-18T04:22:20.252Z,99.74
2022-12-18T04:25:27.332Z,99.14
2022-12-18T04:28:40.073Z,99.28
2022-12-18T04:31:42.411Z,98.98
2022-12-18T04:34:45.401Z,98.93
2022-12-18T04:37:47.434Z,99.23
2022-12-18T04:40:50.915Z,98.84
2022-12-18T04:43:59.790Z,98.18
2022-12-18T04:47:01.637Z,98.16
2022-12-18T04:50:03.929Z,98.06
2022-12-18T04:53:05.827Z,98.04
2022-12-18T04:56:12.861Z,97.91
2022-12-18T04:59:14.737Z,97.89
2022-12-18T05:02:16.795Z,97.20
2022-12-18T05:05:19.209Z,97.26
2022-12-18T05:08:21.372Z,97.58
2022-12-18T05:11:23.280Z,97.45
2022-12-18T05:14:25.212Z,96.75
2022-12-18T05:17:28.080Z,96.88
2022-12-18T05:20:30.204Z,96.52
2022-12-18T05:23:32.033Z,96.61
2022-12-18T05:26:33.901Z,95.90
2022-12-18T05:29:35.757Z,96.24
2022-12-18T05:32:38.286Z,95.65
2022-12-18T05:35:40.204Z,96.00
2022-12-18T05:38:42.111Z,94.94
2022-12-18T05:41:43.910Z,95.46
2022-12-18T05:44:46.006Z,95.64
2022-12-18T05:47:47.843Z,95.79
2022-12-18T05:50:51.389Z,95.68
2022-12-18T05:53:53.251Z,95.60
2022-12-18T05:56:55.107Z,95.36
2022-12-18T05:59:57.208Z,95.25
2022-12-18T06:03:00.111Z,95.31
2022-12-18T06:06:02.060Z,94.86
2022-12-18T06:09:09.233Z,95.42
2022-12-18T06:12:11.761Z,95.09
2022-12-18T06:15:13.630Z,94.96
2022-12-18T06:18:16.030Z,94.74
2022-12-18T06:21:17.947Z,94.61
2022-12-18T06:24:19.760Z,93.79
2022-12-18T06:27:21.659Z,94.01
2022-12-18T06:30:23.765Z,93.70
2022-12-18T06:33:29.169Z,93.26
2022-12-18T06:36:31.135Z,93.54
2022-12-18T06:39:33.026Z,93.30
2022-12-18T06:42:34.873Z,93.20
2022-12-18T06:45:36.755Z,93.00
2022-12-18T06:48:38.779Z,92.89
2022-12-18T06:51:40.650Z,91.92
2022-12-18T06:54:42.481Z,91.81
2022-12-18T06:57:44.300Z,92.46
2022-12-18T07:00:46.168Z,92.61
2022-12-18T07:03:48.061Z,92.77
2022-12-18T07:06:49.978Z,92.58
2022-12-18T07:09:52.122Z,92.50
2022-12-18T07:12:54.024Z,92.27
2022-12-18T07:15:55.900Z,92.52
2022-12-18T07:18:57.788Z,92.56
2022-12-18T07:21:59.621Z,92.61
2022-12-18T07:25:02.481Z,92.39
2022-12-18T07:28:04.960Z,92.75
2022-12-18T07:31:07.581Z,93.02
2022-12-18T07:34:13.103Z,93.34
2022-12-18T07:37:15.019Z,93.56
2022-12-18T07:40:16.960Z,93.53
2022-12-18T07:43:18.819Z,93.79
2022-12-18T07:46:20.954Z,93.77
2022-12-18T07:49:22.880Z,93.63
2022-12-18T07:52:26.311Z,93.34
2022-12-18T07:55:28.490Z,93.28
2022-12-18T07:58:32.054Z,93.53
2022-12-18T08:01:35.286Z,93.50
2022-12-18T08:04:37.251Z,93.83
2022-12-18T08:07:39.148Z,93.64
2022-12-18T08:10:41.005Z,93.51
2022-12-18T08:13:43.222Z,93.33
2022-12-18T08:16:45.397Z,92.59
2022-12-18T08:19:47.253Z,91.98
2022-12-18T08:22:49.261Z,92.02
2022-12-18T08:25:55.057Z,92.47
2022-12-18T08:28:58.089Z,92.62
2022-12-18T08:31:59.890Z,92.30
2022-12-18T08:35:01.801Z,92.65
2022-12-18T08:38:04.433Z,92.79
2022-12-18T08:41:09.870Z,92.65
2022-12-18T08:44:30.388Z,93.17
2022-12-18T08:47:32.425Z,92.70
2022-12-18T08:50:34.368Z,92.65
2022-12-18T08:53:37.169Z,92.64
2022-12-18T08:56:39.134Z,92.29
2022-12-18T08:59:40.951Z,92.44
2022-12-18T09:02:43.052Z,92.34
2022-12-18T09:05:46.883Z,92.52
2022-12-18T09:08:48.792Z,92.67
2022-12-18T09:11:50.684Z,92.70
2022-12-18T09:14:52.651Z,92.55
2022-12-18T09:17:54.979Z,92.37
2022-12-18T09:20:56.932Z,92.20
2022-12-18T09:23:58.948Z,92.45
2022-12-18T09:27:00.821Z,92.58
2022-12-18T09:30:03.879Z,92.94
2022-12-18T09:33:05.720Z,92.61
2022-12-18T09:36:11.560Z,92.79
2022-12-18T09:39:13.456Z,91.98
2022-12-18T09:42:22.093Z,91.69
2022-12-18T09:45:25.259Z,92.20
2022-12-18T09:48:32.574Z,92.03
2022-12-18T09:51:42.875Z,91.82
2022-12-18T09:55:14.315Z,91.80
2022-12-18T09:58:30.796Z,91.50
2022-12-18T10:01:43.218Z,91.90
2022-12-18T10:04:56.963Z,91.81
2022-12-18T10:08:16.826Z,91.61
2022-12-18T10:11:22.060Z,91.78
2022-12-18T10:14:58.367Z,90.79
2022-12-18T10:18:06.429Z,91.33
2022-12-18T10:21:16.744Z,91.32
2022-12-18T10:24:39.853Z,91.34
2022-12-18T10:27:42.001Z,91.96
2022-12-18T10:30:45.047Z,92.09
2022-12-18T10:33:47.566Z,92.15
2022-12-18T10:36:49.458Z,91.74
2022-12-18T10:40:21.835Z,91.38
2022-12-18T10:43:27.764Z,91.57
2022-12-18T10:46:29.686Z,91.50
2022-12-18T10:49:34.525Z,91.31
2022-12-18T10:52:38.653Z,91.18
2022-12-18T10:55:47.018Z,91.50
2022-12-18T10:59:07.252Z,91.43
2022-12-18T11:02:27.849Z,91.14
2022-12-18T11:05:35.015Z,90.61
2022-12-18T11:08:37.841Z,89.94
2022-12-18T11:11:39.772Z,89.52
2022-12-18T11:14:49.053Z,89.20
2022-12-18T11:17:52.924Z,88.78
2022-12-18T11:21:08.665Z,88.83
2022-12-18T11:24:27.208Z,88.58
2022-12-18T11:27:29.756Z,88.32
2022-12-18T11:30:34.740Z,88.57
2022-12-18T11:33:53.123Z,89.02
2022-12-18T11:37:04.674Z,88.66
2022-12-18T11:40:17.932Z,88.94
2022-12-18T11:43:54.089Z,89.11
2022-12-18T11:47:10.642Z,89.58
2022-12-18T11:50:23.238Z,89.49
2022-12-18T11:53:27.018Z,89.40
2022-12-18T11:56:44.515Z,88.89
2022-12-18T12:00:12.257Z,88.62
2022-12-18T12:04:00.247Z,87.55
2022-12-18T12:07:25.297Z,87.32
2022-12-18T12:10:50.155Z,87.61
2022-12-18T12:14:29.287Z,86.73
2022-12-18T12:17:40.783Z,87.46
2022-12-18T12:21:01.284Z,87.33
2022-12-18T12:27:56.042Z,87.13
2022-12-18T12:31:40.344Z,86.81
2022-12-18T12:34:54.815Z,87.27
2022-12-18T12:38:05.608Z,86.54
2022-12-18T12:41:32.132Z,86.92
2022-12-18T12:44:39.453Z,86.89
2022-12-18T12:47:45.038Z,86.74
2022-12-18T12:50:49.295Z,86.06
2022-12-18T12:53:53.055Z,85.96
2022-12-18T12:57:14.627Z,85.61
2022-12-18T13:00:23.271Z,85.92
2022-12-18T13:03:25.165Z,85.76
2022-12-18T13:06:51.372Z,86.00
2022-12-18T13:10:13.638Z,85.79
2022-12-18T13:13:23.726Z,85.99
2022-12-18T13:16:28.638Z,85.44
2022-12-18T13:19:31.996Z,85.32
2022-12-18T13:22:46.730Z,85.29
2022-12-18T13:25:48.598Z,85.18
2022-12-18T13:28:53.893Z,84.63
2022-12-18T13:32:00.899Z,83.52
2022-12-18T13:35:39.355Z,83.94
2022-12-18T13:38:42.938Z,83.66
2022-12-18T13:41:53.192Z,83.06
2022-12-18T13:44:55.061Z,83.35
2022-12-18T13:47:57.163Z,83.61
2022-12-18T13:51:01.935Z,83.08
2022-12-18T13:54:20.978Z,83.71
2022-12-18T13:57:41.830Z,82.79
2022-12-18T14:00:44.842Z,82.09
2022-12-18T14:03:48.047Z,82.25
2022-12-18T14:06:53.487Z,81.75
2022-12-18T14:10:12.657Z,81.81
2022-12-18T14:13:38.385Z,81.92
2022-12-18T14:16:42.322Z,81.34
2022-12-18T14:19:48.693Z,81.14
2022-12-18T14:22:51.095Z,80.57
2022-12-18T14:25:52.910Z,79.88
2022-12-18T14:29:02.214Z,80.32
2022-12-18T14:32:19.023Z,80.43
2022-12-18T14:35:21.047Z,80.30
2022-12-18T14:38:33.832Z,80.52
2022-12-18T14:41:37.229Z,80.48
2022-12-18T14:44:50.709Z,80.73
2022-12-18T14:48:01.776Z,80.42
2022-12-18T14:51:06.093Z,80.48
2022-12-18T14:54:18.002Z,80.99
2022-12-18T14:57:25.835Z,81.07
2022-12-18T15:00:28.028Z,80.20
2022-12-18T15:03:30.079Z,80.15
2022-12-18T15:06:33.880Z,79.36
2022-12-18T15:09:35.947Z,79.51
2022-12-18T15:12:38.781Z,79.38
2022-12-18T15:15:41.558Z,79.31
2022-12-18T15:18:46.280Z,79.14
2022-12-18T15:21:48.304Z,78.28
2022-12-18T15:24:50.751Z,78.31
2022-12-18T15:27:54.017Z,78.14
2022-12-18T15:31:03.347Z,77.41
2022-12-18T15:34:24.929Z,76.86
2022-12-18T15:37:26.819Z,77.36
2022-12-18T15:40:28.805Z,77.00
2022-12-18T15:43:37.936Z,77.21
2022-12-18T15:46:40.062Z,76.30
2022-12-18T15:49:42.320Z,75.56
2022-12-18T15:52:47.359Z,76.27
2022-12-18T15:56:07.707Z,76.58
2022-12-18T15:59:21.107Z,75.57
2022-12-18T16:02:24.250Z,75.66
2022-12-18T16:05:27.771Z,76.05
2022-12-18T16:08:31.043Z,75.89
2022-12-18T16:11:43.954Z,76.56
2022-12-18T16:14:46.906Z,76.72
2022-12-18T16:17:49.222Z,76.44
2022-12-18T16:20:51.577Z,76.58
2022-12-18T16:23:55.723Z,77.05
2022-12-18T16:27:00.387Z,76.48
2022-12-18T16:30:02.256Z,76.57
2022-12-18T16:33:04.259Z,76.64
2022-12-18T16:36:08.167Z,77.06
2022-12-18T16:39:10.027Z,77.56
2022-12-18T16:42:20.571Z,76.80
2022-12-18T16:45:22.772Z,77.79
2022-12-18T16:48:24.871Z,77.85
2022-12-18T16:51:29.771Z,77.81
2022-12-18T16:54:31.995Z,77.74
2022-12-18T16:57:33.989Z,78.26
2022-12-18T17:00:35.885Z,78.32
2022-12-18T17:03:38.034Z,77.49
2022-12-18T17:06:43.409Z,77.44
2022-12-18T17:09:47.281Z,76.70
2022-12-18T17:12:51.196Z,76.73
2022-12-18T17:15:53.324Z,77.40
2022-12-18T17:18:55.229Z,77.10
2022-12-18T17:21:57.272Z,77.18
2022-12-18T17:24:59.065Z,77.29
2022-12-18T17:28:00.870Z,77.14
2022-12-18T17:31:03.190Z,77.88
2022-12-18T17:34:05.394Z,77.56
2022-12-18T17:37:07.537Z,77.76
2022-12-18T17:40:10.046Z,77.42
2022-12-18T17:43:14.816Z,77.88
2022-12-18T17:46:17.042Z,77.92
2022-12-18T17:49:18.971Z,77.87
2022-12-18T17:52:20.933Z,77.92
2022-12-18T17:55:23.229Z,78.09
2022-12-18T17:58:25.181Z,78.72
2022-12-18T18:01:27.657Z,78.61
2022-12-18T18:04:29.628Z,78.98
2022-12-18T18:07:31.483Z,78.47
2022-12-18T18:10:38.309Z,78.95
2022-12-18T18:13:58.773Z,79.71
2022-12-18T18:17:04.217Z,79.35
2022-12-18T18:20:07.847Z,79.53
2022-12-18T18:23:09.902Z,79.89
2022-12-18T18:26:11.741Z,79.80
2022-12-18T18:29:16.754Z,80.53
2022-12-18T18:32:19.090Z,80.38
2022-12-18T18:35:52.262Z,80.38
2022-12-18T18:38:48.235Z,80.75
2022-12-18T18:41:50.542Z,80.66
2022-12-18T18:44:52.564Z,80.88
2022-12-18T18:47:55.560Z,81.23
2022-12-18T18:51:05.448Z,81.50
2022-12-18T18:54:09.802Z,81.31
2022-12-18T18:57:20.296Z,81.91
2022-12-18T19:00:22.734Z,81.87
2022-12-18T19:03:25.667Z,81.73
2022-12-18T19:06:29.801Z,81.19
2022-12-18T19:09:31.760Z,81.72
2022-12-18T19:12:53.247Z,82.04
2022-12-18T19:16:05.967Z,81.45
2022-12-18T19:19:08.166Z,81.78
2022-12-18T19:22:11.029Z,81.20
2022-12-18T19:25:12.821Z,81.00
2022-12-18T19:28:21.811Z,80.95
2022-12-18T19:31:27.112Z,81.51
2022-12-18T19:34:31.676Z,82.04
2022-12-18T19:37:35.563Z,82.29
2022-12-18T19:40:41.391Z,82.05
2022-12-18T19:43:44.359Z,82.26
2022-12-18T19:46:46.653Z,81.87
2022-12-18T19:49:49.102Z,82.29
2022-12-18T19:52:52.158Z,82.44
2022-12-18T19:55:55.592Z,81.91
2022-12-18T19:58:59.350Z,81.35
2022-12-18T20:02:02.622Z,81.62
2022-12-18T20:05:09.138Z,81.64
2022-12-18T20:08:13.069Z,81.76
2022-12-18T20:11:16.234Z,81.89
2022-12-18T20:14:20.653Z,81.97
2022-12-18T20:17:25.875Z,82.60
2022-12-18T20:20:27.999Z,82.68
2022-12-18T20:23:29.850Z,83.06
2022-12-18T20:26:35.052Z,83.28
2022-12-18T20:29:36.909Z,82.88
2022-12-18T20:32:38.793Z,83.15
2022-12-18T20:35:41.022Z,83.11
2022-12-18T20:38:43.720Z,83.12
2022-12-18T20:41:46.250Z,83.59
2022-12-18T20:44:48.088Z,83.43
2022-12-18T20:47:50.053Z,84.16
2022-12-18T20:51:03.830Z,84.64
2022-12-18T20:54:09.135Z,84.40
2022-12-18T20:57:13.938Z,84.32
2022-12-18T21:00:18.939Z,85.01
2022-12-18T21:03:23.154Z,84.61
2022-12-18T21:06:25.304Z,84.77
2022-12-18T21:09:27.275Z,84.66
2022-12-18T21:12:40.538Z,84.28
2022-12-18T21:15:55.707Z,84.77
2022-12-18T21:18:59.935Z,84.88
2022-12-18T21:22:04.119Z,85.14
2022-12-18T21:25:06.862Z,85.23
2022-12-18T21:28:08.658Z,84.63
2022-12-18T21:31:11.136Z,85.24
2022-12-18T21:34:27.634Z,85.96
2022-12-18T21:37:29.555Z,86.21
2022-12-18T21:40:31.409Z,85.91
2022-12-18T21:43:52.934Z,86.00
2022-12-18T21:47:00.596Z,85.45
2022-12-18T21:50:05.920Z,85.46
2022-12-18T21:53:07.833Z,85.61
2022-12-18T21:56:09.720Z,85.82
2022-12-18T21:59:16.102Z,85.93
2022-12-18T22:02:21.123Z,85.62
2022-12-18T22:05:23.535Z,85.85
2022-12-18T22:08:26.439Z,85.59
2022-12-18T22:11:28.426Z,86.31
2022-12-18T22:14:30.284Z,86.72
2022-12-18T22:17:32.430Z,86.60
2022-12-18T22:20:34.490Z,86.39
2022-12-18T22:23:36.289Z,86.82
2022-12-18T22:26:40.293Z,86.78
2022-12-18T22:30:00.789Z,86.30
2022-12-18T22:33:03.678Z,86.55
2022-12-18T22:36:06.882Z,86.05
2022-12-18T22:39:20.299Z,85.80
2022-12-18T22:42:23.127Z,85.72
2022-12-18T22:45:26.836Z,85.54
2022-12-18T22:48:28.715Z,85.38
2022-12-18T22:51:31.259Z,85.02
2022-12-18T22:54:33.333Z,85.96
2022-12-18T22:57:35.352Z,85.73
2022-12-18T23:00:38.571Z,85.42
2022-12-18T23:03:40.465Z,85.13
2022-12-18T23:06:43.589Z,84.72
2022-12-18T23:09:45.581Z,84.44
2022-12-18T23:12:49.683Z,84.01
2022-12-18T23:15:51.591Z,84.00
2022-12-18T23:18:54.987Z,83.79
2022-12-18T23:21:58.816Z,83.21
2022-12-18T23:25:00.973Z,83.49
2022-12-18T23:28:02.900Z,83.34
2022-12-18T23:31:06.631Z,83.07
2022-12-18T23:34:11.830Z,83.77
2022-12-18T23:37:25.020Z,83.71
2022-12-18T23:40:35.558Z,83.16
2022-12-18T23:43:38.383Z,83.05
2022-12-18T23:46:40.399Z,83.23
2022-12-18T23:49:42.292Z,83.12
2022-12-18T23:52:44.295Z,82.98
2022-12-18T23:55:46.146Z,82.77
2022-12-18T23:58:52.732Z,83.21
